logo
Search for airport 
image banner adimage banner adimage banner ad
image banner ad

2B9 - Post Mills

Located in Post Mills, United States

ICAO - 2B9, IATA -

Data provided by Airmate  

General information

Coordinates: N43°53'1" W72°15'7"
Elevation is 696 feet MSL.
Magnetic variation is -16° East
View others Airports in Vermont

Operational data

Special qualification required
Current time UTC:
Current local time:
Weather at : KLEB - Lebanon Muni ( 29 km )
METAR: KLEB 171653Z 22006KT 10SM OVC090 24/16 A3011 RMK AO2 SLP188 T02390156
TAF: KLEB 171722Z 1718/1818 22006KT P6SM OVC090 FM180900 16001KT 5SM BR SCT001 FM181200 20003KT P6SM BKN250
View NOTAMs / SUP AIP / TFR affecting this airport [VIEW]
Communications frequencies: [VIEW]

Runways:

RWY identifierQFULength (ft)Width (ft)SurfaceLDA (ft)
04290080GRASS
22290080GRASS
0533°230080GRASS
23213°230080GRASS

Airport contact information

Address: Post Mills United States

Satellite view of 2B9